createdAt,value
2018-02-13T00:02:11.343Z,29.35
2018-02-13T00:04:39.536Z,30.12
2018-02-13T00:07:07.047Z,29.02
2018-02-13T00:09:34.599Z,27.15
2018-02-13T00:12:02.107Z,27.85
2018-02-13T00:14:31.104Z,29.52
2018-02-13T00:16:58.710Z,27.92
2018-02-13T00:19:26.205Z,32.58
2018-02-13T00:21:53.728Z,33.28
2018-02-13T00:24:21.283Z,28.73
2018-02-13T00:26:48.794Z,26.67
2018-02-13T00:29:16.405Z,28.50
2018-02-13T00:31:43.970Z,31.87
2018-02-13T00:34:11.522Z,28.83
2018-02-13T00:36:39.046Z,28.65
2018-02-13T00:39:07.417Z,30.37
2018-02-13T00:41:36.059Z,29.73
2018-02-13T00:44:03.562Z,31.08
2018-02-13T00:46:31.159Z,28.20
2018-02-13T00:48:58.716Z,30.73
2018-02-13T00:51:26.260Z,28.30
2018-02-13T00:53:54.523Z,29.67
2018-02-13T00:56:23.540Z,27.50
2018-02-13T00:58:51.797Z,28.85
2018-02-13T01:01:20.065Z,29.10
2018-02-13T01:03:47.555Z,30.20
2018-02-13T01:06:15.055Z,28.83
2018-02-13T01:08:42.545Z,32.15
2018-02-13T01:11:10.130Z,30.60
2018-02-13T01:13:37.625Z,28.30
2018-02-13T01:16:05.144Z,30.25
2018-02-13T01:18:33.412Z,29.77
2018-02-13T01:21:02.591Z,30.17
2018-02-13T01:23:30.084Z,29.50
2018-02-13T01:25:57.584Z,29.87
2018-02-13T01:28:25.101Z,30.92
2018-02-13T01:30:52.608Z,30.73
2018-02-13T01:33:20.108Z,29.17
2018-02-13T01:35:48.385Z,33.00
2018-02-13T01:38:16.648Z,28.25
2018-02-13T01:40:44.913Z,28.23
2018-02-13T01:43:12.412Z,30.17
2018-02-13T01:45:39.925Z,30.12
2018-02-13T01:48:07.511Z,29.02
2018-02-13T01:50:35.778Z,31.98
2018-02-13T01:53:04.088Z,28.10
2018-02-13T01:55:31.606Z,29.65
2018-02-13T01:57:59.138Z,28.60
2018-02-13T02:00:26.762Z,33.25
2018-02-13T02:02:54.254Z,30.20
2018-02-13T02:05:22.104Z,30.90
2018-02-13T02:07:49.615Z,30.65
2018-02-13T02:10:17.891Z,28.95
2018-02-13T02:12:46.148Z,30.02
2018-02-13T02:15:15.180Z,28.65
2018-02-13T02:17:43.468Z,28.08
2018-02-13T02:20:11.023Z,31.12
2018-02-13T02:22:38.538Z,28.95
2018-02-13T02:25:06.043Z,31.33
2018-02-13T02:27:33.587Z,32.03
2018-02-13T02:30:01.856Z,32.63
2018-02-13T02:32:30.144Z,32.20
2018-02-13T02:34:58.431Z,31.23
2018-02-13T02:37:25.963Z,30.12
2018-02-13T02:39:54.261Z,30.40
2018-02-13T02:42:21.779Z,28.45
2018-02-13T02:44:49.384Z,34.17
2018-02-13T02:47:16.889Z,32.45
2018-02-13T02:49:44.383Z,35.40
2018-02-13T02:52:12.675Z,30.83
2018-02-13T02:54:40.183Z,32.75
2018-02-13T02:57:07.774Z,28.77
2018-02-13T02:59:36.061Z,29.02
2018-02-13T03:02:04.367Z,31.20
2018-02-13T03:04:31.867Z,28.75
2018-02-13T03:06:59.477Z,32.42
2018-02-13T03:09:26.992Z,30.67
2018-02-13T03:11:54.625Z,29.65
2018-02-13T03:14:22.128Z,28.75
2018-02-13T03:16:50.414Z,29.05
2018-02-13T03:19:18.673Z,33.20
2018-02-13T03:21:46.214Z,30.00
2018-02-13T03:24:13.724Z,27.70
2018-02-13T03:26:41.223Z,32.78
2018-02-13T03:29:09.298Z,29.83
2018-02-13T03:31:36.908Z,27.92
2018-02-13T03:34:04.424Z,29.10
2018-02-13T03:36:31.938Z,29.70
2018-02-13T03:38:59.434Z,28.33
2018-02-13T03:41:26.935Z,27.95
2018-02-13T03:43:54.491Z,29.60
2018-02-13T03:46:22.778Z,27.83
2018-02-13T03:48:50.364Z,31.20
2018-02-13T03:51:17.876Z,29.58
2018-02-13T03:53:46.142Z,29.58
2018-02-13T03:56:13.643Z,29.40
2018-02-13T03:58:41.148Z,30.02
2018-02-13T04:01:08.648Z,29.37
2018-02-13T04:03:36.142Z,31.67
2018-02-13T04:06:03.658Z,30.45
2018-02-13T04:08:31.923Z,31.12
2018-02-13T04:11:00.215Z,28.48
2018-02-13T04:13:28.489Z,34.10
2018-02-13T04:15:56.773Z,32.20
2018-02-13T04:18:24.271Z,30.48
2018-02-13T04:20:51.761Z,34.10
2018-02-13T04:23:19.260Z,31.30
2018-02-13T04:25:46.799Z,30.02
2018-02-13T04:28:15.075Z,31.33
2018-02-13T04:30:43.326Z,32.05
2018-02-13T04:33:10.921Z,31.33
2018-02-13T04:35:38.406Z,30.17
2018-02-13T04:38:05.926Z,30.27
2018-02-13T04:40:34.197Z,32.53
2018-02-13T04:43:02.503Z,30.30
2018-02-13T04:45:29.990Z,29.67
2018-02-13T04:47:59.550Z,27.80
2018-02-13T04:50:27.830Z,28.65
2018-02-13T04:52:55.336Z,29.98
2018-02-13T04:55:22.917Z,31.48
2018-02-13T04:57:50.522Z,29.48
2018-02-13T05:00:18.047Z,28.35
2018-02-13T05:02:45.531Z,32.13
2018-02-13T05:05:13.090Z,32.97
2018-02-13T05:07:40.605Z,29.45
2018-02-13T05:10:08.909Z,28.73
2018-02-13T05:12:37.214Z,28.95
2018-02-13T05:15:04.712Z,27.80
2018-02-13T05:17:32.218Z,29.70
2018-02-13T05:19:59.861Z,27.52
2018-02-13T05:22:28.140Z,27.67
2018-02-13T05:24:55.730Z,42.35
2018-02-13T05:27:23.279Z,36.10
2018-02-13T05:29:50.863Z,29.58
2018-02-13T05:32:18.461Z,29.70
2018-02-13T05:34:46.808Z,29.00
2018-02-13T05:37:14.324Z,29.70
2018-02-13T05:39:41.853Z,27.60
2018-02-13T05:42:09.445Z,27.25
2018-02-13T05:44:37.701Z,29.83
2018-02-13T05:47:06.011Z,29.87
2018-02-13T05:49:33.519Z,30.50
2018-02-13T05:52:01.011Z,27.60
2018-02-13T05:54:29.291Z,30.50
2018-02-13T05:56:57.563Z,34.25
2018-02-13T05:59:25.854Z,32.00
2018-02-13T06:01:53.355Z,28.05
2018-02-13T06:04:20.868Z,32.35
2018-02-13T06:06:48.473Z,30.35
2018-02-13T06:09:15.992Z,25.73
2018-02-13T06:11:43.509Z,26.23
2018-02-13T06:14:11.020Z,26.08
2018-02-13T06:16:38.581Z,25.48
2018-02-13T06:19:06.116Z,25.58
2018-02-13T06:21:34.392Z,26.15
2018-02-13T06:24:02.888Z,26.23
2018-02-13T06:26:30.489Z,21.83
2018-02-13T06:28:58.121Z,23.85
2018-02-13T06:31:25.669Z,23.70
2018-02-13T06:33:53.211Z,22.65
2018-02-13T06:36:21.516Z,26.08
2018-02-13T06:38:49.064Z,21.12
2018-02-13T06:41:16.846Z,22.95
2018-02-13T06:43:44.511Z,28.20
2018-02-13T06:46:12.089Z,28.30
2018-02-13T06:48:39.617Z,30.92
2018-02-13T06:51:07.293Z,26.20
2018-02-13T06:53:34.827Z,28.05
2018-02-13T06:56:03.099Z,24.70
2018-02-13T06:58:30.675Z,24.95
2018-02-13T07:00:58.224Z,28.42
2018-02-13T07:03:25.757Z,27.65
2018-02-13T07:05:53.243Z,27.35
2018-02-13T07:08:20.818Z,25.37
2018-02-13T07:10:48.332Z,27.50
2018-02-13T07:13:16.641Z,28.30
2018-02-13T07:15:44.187Z,36.67
2018-02-13T07:18:11.728Z,26.40
2018-02-13T07:20:39.269Z,26.10
2018-02-13T07:23:06.979Z,24.98
2018-02-13T07:25:34.555Z,26.80
2018-02-13T07:28:02.115Z,26.05
2018-02-13T07:30:29.898Z,29.73
2018-02-13T07:32:57.410Z,28.90
2018-02-13T07:35:25.224Z,29.58
2018-02-13T07:37:52.724Z,26.95
2018-02-13T07:40:21.009Z,27.58
2018-02-13T07:42:49.341Z,26.75
2018-02-13T07:45:16.849Z,27.37
2018-02-13T07:47:45.199Z,26.52
2018-02-13T07:50:13.630Z,24.77
2018-02-13T07:52:41.186Z,28.67
2018-02-13T07:55:08.827Z,24.55
2018-02-13T07:57:37.074Z,25.52
2018-02-13T08:00:04.569Z,27.90
2018-02-13T08:02:32.849Z,27.13
2018-02-13T08:05:01.191Z,27.42
2018-02-13T08:07:28.774Z,27.92
2018-02-13T08:09:57.030Z,27.27
2018-02-13T08:12:25.344Z,25.27
2018-02-13T08:14:53.606Z,27.87
2018-02-13T08:17:21.937Z,27.58
2018-02-13T08:19:49.450Z,26.37
2018-02-13T08:22:17.853Z,26.85
2018-02-13T08:24:45.408Z,25.73
2018-02-13T08:27:12.946Z,26.55
2018-02-13T08:29:41.190Z,24.25
2018-02-13T08:32:08.703Z,23.20
2018-02-13T08:34:36.262Z,26.48
2018-02-13T08:37:03.787Z,22.73
2018-02-13T08:39:32.061Z,24.87
2018-02-13T08:42:00.315Z,24.42
2018-02-13T08:44:28.221Z,25.55
2018-02-13T08:46:56.496Z,22.33
2018-02-13T08:49:24.807Z,24.08
2018-02-13T08:51:52.324Z,22.75
2018-02-13T08:54:20.598Z,25.77
2018-02-13T08:56:48.873Z,23.20
2018-02-13T08:59:17.156Z,32.80
2018-02-13T09:01:45.562Z,25.52
2018-02-13T09:04:13.126Z,26.55
2018-02-13T09:06:40.653Z,25.90
2018-02-13T09:09:08.982Z,24.10
2018-02-13T09:11:36.501Z,29.83
2018-02-13T09:14:04.006Z,26.40
2018-02-13T09:16:31.525Z,25.70
2018-02-13T09:18:59.026Z,28.15
2018-02-13T09:21:26.643Z,25.77
2018-02-13T09:23:54.155Z,25.40
2018-02-13T09:26:21.723Z,23.30
2018-02-13T09:28:49.332Z,24.60
2018-02-13T09:31:16.837Z,23.48
2018-02-13T09:33:44.339Z,23.55
2018-02-13T09:36:11.852Z,24.60
2018-02-13T09:38:39.360Z,23.97
2018-02-13T09:41:06.900Z,25.20
2018-02-13T09:43:35.163Z,22.60
2018-02-13T09:46:02.720Z,26.20
2018-02-13T09:48:30.248Z,22.77
2018-02-13T09:50:57.802Z,22.80
2018-02-13T09:53:25.328Z,19.07
2018-02-13T09:55:53.836Z,21.80
2018-02-13T09:58:22.278Z,24.00
2018-02-13T10:00:50.575Z,22.60
2018-02-13T10:03:18.105Z,21.47
2018-02-13T10:05:46.391Z,23.77
2018-02-13T10:08:14.787Z,21.27
2018-02-13T10:10:42.283Z,19.80
2018-02-13T10:13:09.808Z,19.57
2018-02-13T10:15:37.308Z,19.80
2018-02-13T10:18:04.853Z,24.27
2018-02-13T10:20:32.356Z,22.30
2018-02-13T10:23:00.615Z,21.87
2018-02-13T10:25:28.189Z,20.37
2018-02-13T10:27:56.454Z,20.33
2018-02-13T10:30:24.800Z,19.93
2018-02-13T10:32:52.406Z,21.20
2018-02-13T10:35:20.019Z,20.37
2018-02-13T10:37:47.666Z,18.27
2018-02-13T10:40:15.256Z,19.50
2018-02-13T10:42:42.936Z,18.03
2018-02-13T10:45:10.582Z,18.87
2018-02-13T10:47:38.294Z,20.03
2018-02-13T10:50:05.975Z,20.23
2018-02-13T10:52:33.686Z,19.63
2018-02-13T10:55:02.066Z,18.27
2018-02-13T10:57:29.865Z,17.97
2018-02-13T10:59:58.207Z,19.93
2018-02-13T11:02:25.902Z,16.37
2018-02-13T11:04:53.589Z,19.07
2018-02-13T11:07:21.155Z,18.73
2018-02-13T11:09:48.893Z,19.93
2018-02-13T11:12:16.493Z,19.50
2018-02-13T11:14:44.150Z,18.23
2018-02-13T11:17:11.755Z,20.10
2018-02-13T11:19:39.336Z,17.47
2018-02-13T11:22:07.046Z,18.50
2018-02-13T11:24:34.619Z,18.80
2018-02-13T11:27:02.357Z,18.23
2018-02-13T11:29:29.959Z,17.27
2018-02-13T11:31:57.515Z,17.07
2018-02-13T11:34:25.169Z,17.57
2018-02-13T11:36:52.733Z,17.77
2018-02-13T11:39:20.324Z,20.70
2018-02-13T11:41:47.889Z,18.73
2018-02-13T11:44:15.582Z,19.43
2018-02-13T11:46:43.098Z,22.17
2018-02-13T11:49:10.614Z,19.03
2018-02-13T11:51:38.284Z,20.00
2018-02-13T11:54:06.001Z,18.20
2018-02-13T11:56:34.262Z,18.53
2018-02-13T11:59:01.829Z,17.80
2018-02-13T12:01:30.090Z,19.73
2018-02-13T12:03:58.398Z,18.97
2018-02-13T12:06:25.905Z,18.20
2018-02-13T12:08:53.891Z,17.00
2018-02-13T12:11:22.164Z,18.37
2018-02-13T12:13:49.734Z,19.37
2018-02-13T12:16:18.010Z,19.17
2018-02-13T12:18:46.311Z,15.60
2018-02-13T12:21:13.801Z,18.20
2018-02-13T12:23:41.303Z,18.23
2018-02-13T12:26:09.679Z,18.50
2018-02-13T12:28:37.943Z,20.30
2018-02-13T12:31:06.302Z,18.53
2018-02-13T12:33:33.926Z,17.87
2018-02-13T12:36:01.448Z,18.83
2018-02-13T12:38:30.471Z,16.27
2018-02-13T12:40:58.763Z,16.40
2018-02-13T12:43:26.262Z,13.87
2018-02-13T12:45:53.891Z,12.17
2018-02-13T12:48:21.416Z,13.50
2018-02-13T12:50:49.842Z,15.57
2018-02-13T12:53:17.720Z,15.93
2018-02-13T12:55:46.175Z,18.37
2018-02-13T12:58:14.730Z,16.03
2018-02-13T13:00:42.978Z,17.53
2018-02-13T13:03:10.504Z,16.37
2018-02-13T13:05:37.994Z,14.27
2018-02-13T13:08:05.482Z,15.23
2018-02-13T13:10:33.003Z,15.53
2018-02-13T13:13:00.509Z,14.67
2018-02-13T13:15:28.046Z,10.30
2018-02-13T13:17:56.357Z,12.00
2018-02-13T13:20:23.955Z,13.77
2018-02-13T13:22:51.452Z,14.10
2018-02-13T13:25:19.856Z,13.63
2018-02-13T13:27:47.493Z,14.50
2018-02-13T13:30:15.783Z,12.83
2018-02-13T13:32:43.282Z,12.13
2018-02-13T13:35:10.804Z,13.07
2018-02-13T13:37:38.471Z,13.37
2018-02-13T13:40:05.971Z,16.60
2018-02-13T13:42:33.586Z,13.90
2018-02-13T13:45:01.090Z,14.30
2018-02-13T13:47:29.013Z,13.27
2018-02-13T13:49:56.571Z,11.70
2018-02-13T13:52:24.090Z,14.07
2018-02-13T13:54:51.653Z,14.83
2018-02-13T13:57:19.239Z,11.50
2018-02-13T13:59:47.547Z,15.03
2018-02-13T14:02:15.075Z,12.83
2018-02-13T14:04:43.459Z,13.43
2018-02-13T14:07:10.979Z,13.70
2018-02-13T14:09:38.466Z,12.73
2018-02-13T14:12:06.755Z,10.33
2018-02-13T14:14:34.345Z,11.10
2018-02-13T14:17:01.852Z,10.67
2018-02-13T14:19:30.117Z,10.83
2018-02-13T14:21:57.626Z,13.30
2018-02-13T14:24:26.153Z,11.43
2018-02-13T14:26:53.738Z,12.40
2018-02-13T14:29:22.155Z,13.57
2018-02-13T14:31:49.653Z,11.83
2018-02-13T14:34:17.232Z,12.53
2018-02-13T14:36:45.490Z,12.57
2018-02-13T14:39:13.079Z,13.97
2018-02-13T14:41:40.665Z,12.97
2018-02-13T14:44:08.223Z,11.83
2018-02-13T14:46:36.529Z,11.03
2018-02-13T14:49:04.042Z,10.23
2018-02-13T14:51:31.632Z,10.57
2018-02-13T14:53:59.109Z,8.80
2018-02-13T14:56:26.620Z,8.57
2018-02-13T14:58:54.095Z,8.43
2018-02-13T15:01:21.635Z,12.07
2018-02-13T15:03:49.144Z,6.77
2018-02-13T15:06:16.626Z,10.33
2018-02-13T15:08:44.908Z,9.83
2018-02-13T15:11:13.998Z,10.30
2018-02-13T15:13:41.503Z,9.27
2018-02-13T15:16:09.829Z,8.57
2018-02-13T15:18:38.294Z,8.20
2018-02-13T15:21:05.907Z,8.27
2018-02-13T15:23:33.427Z,9.23
2018-02-13T15:26:01.132Z,7.73
2018-02-13T15:28:28.669Z,7.83
2018-02-13T15:30:56.200Z,8.57
2018-02-13T15:33:23.696Z,9.87
2018-02-13T15:35:51.312Z,9.23
2018-02-13T15:38:19.809Z,8.87
2018-02-13T15:40:47.303Z,9.67
2018-02-13T15:43:15.989Z,9.27
2018-02-13T15:45:43.508Z,11.23
2018-02-13T15:48:11.068Z,11.17
2018-02-13T15:50:39.148Z,8.80
2018-02-13T15:53:06.755Z,8.43
2018-02-13T15:55:34.252Z,8.63
2018-02-13T15:58:02.056Z,9.90
2018-02-13T16:00:30.518Z,9.37
2018-02-13T16:02:58.977Z,11.67
2018-02-13T16:05:26.527Z,9.17
2018-02-13T16:07:54.017Z,10.33
2018-02-13T16:10:22.291Z,9.53
2018-02-13T16:12:50.561Z,11.23
2018-02-13T16:15:18.842Z,11.00
2018-02-13T16:17:46.371Z,13.27
2018-02-13T16:20:13.896Z,11.17
2018-02-13T16:22:41.446Z,12.57
2018-02-13T16:25:08.953Z,11.80
2018-02-13T16:27:36.443Z,15.43
2018-02-13T16:30:04.716Z,12.87
2018-02-13T16:32:33.064Z,10.40
2018-02-13T16:35:00.555Z,11.93
2018-02-13T16:37:28.841Z,15.03
2018-02-13T16:39:57.107Z,52.47
2018-02-13T16:42:25.374Z,107.57
2018-02-13T16:44:52.923Z,68.57
2018-02-13T16:47:20.508Z,59.03
2018-02-13T16:49:48.817Z,64.67
2018-02-13T16:52:16.312Z,97.13
2018-02-13T16:54:43.920Z,100.80
2018-02-13T16:57:11.419Z,100.70
2018-02-13T16:59:38.935Z,89.17
2018-02-13T17:02:06.448Z,88.57
2018-02-13T17:04:34.105Z,84.07
2018-02-13T17:07:01.628Z,89.27
2018-02-13T17:09:29.137Z,157.17
2018-02-13T17:11:56.667Z,87.47
2018-02-13T17:14:24.204Z,73.57
2018-02-13T17:16:51.725Z,71.27
2018-02-13T17:19:19.986Z,69.53
2018-02-13T17:21:49.030Z,56.37
2018-02-13T17:24:16.588Z,59.47
2018-02-13T17:26:44.144Z,56.10
2018-02-13T17:29:11.653Z,62.92
2018-02-13T17:31:39.176Z,64.70
2018-02-13T17:34:06.709Z,63.77
2018-02-13T17:36:35.005Z,55.28
2018-02-13T17:39:02.519Z,54.58
2018-02-13T17:41:31.529Z,61.40
2018-02-13T17:43:59.097Z,55.20
2018-02-13T17:46:27.398Z,64.72
2018-02-13T17:48:54.884Z,54.22
2018-02-13T17:51:22.515Z,51.70
2018-02-13T17:53:50.020Z,53.97
2018-02-13T17:56:17.548Z,54.53
2018-02-13T17:58:45.056Z,67.43
2018-02-13T18:01:13.313Z,80.90
2018-02-13T18:03:40.837Z,92.62
2018-02-13T18:06:08.342Z,74.93
2018-02-13T18:08:36.638Z,59.22
2018-02-13T18:11:04.895Z,34.33
2018-02-13T18:13:32.519Z,36.08
2018-02-13T18:16:00.040Z,49.72
2018-02-13T18:18:27.534Z,35.50
2018-02-13T18:20:55.064Z,30.50
2018-02-13T18:23:22.670Z,35.78
2018-02-13T18:25:50.179Z,33.10
2018-02-13T18:28:17.709Z,32.88
2018-02-13T18:30:45.216Z,28.25
2018-02-13T18:33:12.706Z,27.83
2018-02-13T18:35:40.219Z,24.77
2018-02-13T18:38:07.736Z,24.37
2018-02-13T18:40:35.243Z,22.92
2018-02-13T18:43:02.760Z,29.25
2018-02-13T18:45:30.276Z,34.42
2018-02-13T18:47:58.635Z,28.60
2018-02-13T18:50:26.127Z,26.73
2018-02-13T18:55:21.918Z,23.98
2018-02-13T18:57:50.199Z,23.60
2018-02-13T19:00:17.756Z,20.20
2018-02-13T19:02:45.258Z,21.15
2018-02-13T19:05:12.776Z,19.85
2018-02-13T19:07:41.050Z,20.62
2018-02-13T19:10:08.570Z,21.35
2018-02-13T19:12:36.059Z,19.17
2018-02-13T19:15:04.369Z,19.75
2018-02-13T19:17:31.909Z,18.80
2018-02-13T19:19:59.430Z,22.35
2018-02-13T19:22:26.930Z,23.87
2018-02-13T19:24:54.459Z,20.88
2018-02-13T19:27:21.979Z,22.37
2018-02-13T19:29:49.474Z,20.02
2018-02-13T19:32:16.980Z,24.98
2018-02-13T19:34:44.485Z,23.40
2018-02-13T19:37:11.975Z,22.23
2018-02-13T19:39:39.478Z,22.10
2018-02-13T19:42:06.980Z,23.67
2018-02-13T19:44:35.267Z,24.27
2018-02-13T19:47:02.784Z,21.62
2018-02-13T19:49:30.303Z,21.02
2018-02-13T19:51:57.867Z,22.05
2018-02-13T19:54:26.566Z,24.00
2018-02-13T19:56:54.104Z,23.80
2018-02-13T19:59:21.614Z,26.30
2018-02-13T20:01:49.316Z,25.25
2018-02-13T20:04:17.599Z,25.77
2018-02-13T20:06:45.096Z,25.75
2018-02-13T20:09:13.819Z,26.00
2018-02-13T20:11:41.673Z,26.08
2018-02-13T20:14:09.246Z,27.40
2018-02-13T20:16:36.911Z,28.58
2018-02-13T20:19:04.484Z,29.95
2018-02-13T20:21:32.006Z,30.35
2018-02-13T20:23:59.529Z,28.50
2018-02-13T20:26:27.026Z,29.55
2018-02-13T20:28:54.552Z,28.83
2018-02-13T20:31:22.320Z,27.70
2018-02-13T20:33:49.886Z,25.60
2018-02-13T20:36:17.448Z,24.92
2018-02-13T20:38:45.153Z,28.52
2018-02-13T20:41:13.439Z,27.85
2018-02-13T20:43:42.347Z,30.88
2018-02-13T20:46:09.901Z,27.65
2018-02-13T20:48:37.420Z,31.20
2018-02-13T20:51:05.129Z,25.30
2018-02-13T20:53:34.052Z,28.70
2018-02-13T20:56:01.563Z,25.10
2018-02-13T20:58:30.824Z,27.77
2018-02-13T21:00:58.359Z,27.75
2018-02-13T21:03:25.872Z,28.55
2018-02-13T21:06:00.474Z,30.12
2018-02-13T21:08:29.296Z,33.83
2018-02-13T21:10:58.274Z,37.38
2018-02-13T21:13:26.653Z,35.20
2018-02-13T21:15:55.110Z,29.90
2018-02-13T21:18:23.779Z,30.95
2018-02-13T21:20:51.435Z,26.08
2018-02-13T21:23:19.683Z,28.30
2018-02-13T21:25:49.107Z,28.12
2018-02-13T21:28:16.960Z,29.65
2018-02-13T21:30:44.624Z,27.80
2018-02-13T21:33:12.226Z,29.25
2018-02-13T21:35:41.606Z,28.95
2018-02-13T21:38:09.652Z,26.48
2018-02-13T21:40:37.171Z,24.37
2018-02-13T21:43:04.736Z,26.75
2018-02-13T21:45:35.159Z,25.25
2018-02-13T21:48:03.583Z,26.73
2018-02-13T21:50:31.694Z,23.50
2018-02-13T21:52:59.558Z,27.48
2018-02-13T21:55:27.121Z,26.90
2018-02-13T21:57:54.623Z,29.83
2018-02-13T22:00:25.961Z,29.95
2018-02-13T22:02:53.671Z,29.70
2018-02-13T22:05:21.361Z,32.03
2018-02-13T22:07:53.279Z,27.48
2018-02-13T22:10:20.823Z,28.87
2018-02-13T22:12:49.389Z,27.62
2018-02-13T22:15:18.337Z,34.83
2018-02-13T22:17:45.888Z,31.87
2018-02-13T22:20:13.543Z,29.20
2018-02-13T22:22:41.046Z,31.67
2018-02-13T22:25:08.856Z,31.27
2018-02-13T22:27:36.350Z,33.53
2018-02-13T22:30:04.561Z,34.83
2018-02-13T22:32:32.837Z,36.40
2018-02-13T22:35:00.406Z,34.47
2018-02-13T22:37:27.963Z,37.80
2018-02-13T22:39:56.232Z,38.50
2018-02-13T22:42:24.516Z,33.13
2018-02-13T22:44:52.017Z,36.45
2018-02-13T22:47:19.511Z,36.55
2018-02-13T22:49:47.045Z,34.33
2018-02-13T22:52:15.567Z,35.58
2018-02-13T22:54:43.835Z,37.40
2018-02-13T22:57:11.346Z,37.03
2018-02-13T22:59:38.893Z,33.75
2018-02-13T23:02:06.477Z,36.83
2018-02-13T23:04:34.122Z,40.90
2018-02-13T23:07:01.647Z,46.63
2018-02-13T23:09:29.918Z,49.20
2018-02-13T23:11:58.235Z,49.33
2018-02-13T23:14:25.761Z,46.13
2018-02-13T23:16:54.032Z,44.65
2018-02-13T23:19:22.289Z,43.75
2018-02-13T23:21:49.796Z,48.35
2018-02-13T23:24:17.289Z,48.20
2018-02-13T23:26:44.784Z,45.40
2018-02-13T23:29:13.052Z,48.00
2018-02-13T23:31:41.402Z,44.47
2018-02-13T23:34:08.888Z,41.88
2018-02-13T23:36:36.411Z,41.15
2018-02-13T23:39:03.945Z,41.17
2018-02-13T23:41:31.484Z,40.00
2018-02-13T23:43:58.984Z,41.35
2018-02-13T23:46:26.473Z,35.65
2018-02-13T23:48:54.102Z,34.78
2018-02-13T23:51:21.596Z,36.58
2018-02-13T23:53:49.179Z,37.45
2018-02-13T23:56:16.684Z,35.45
2018-02-13T23:58:44.194Z,35.75
